createdAt,value
2022-12-27T00:02:28.196Z,5.25
2022-12-27T00:10:03.641Z,5.17
2022-12-27T00:17:37.476Z,5.06
2022-12-27T00:25:12.770Z,5.03
2022-12-27T00:32:46.730Z,4.98
2022-12-27T00:40:21.890Z,4.93
2022-12-27T00:47:55.833Z,4.81
2022-12-27T00:55:31.215Z,4.70
2022-12-27T01:03:05.072Z,4.55
2022-12-27T01:10:42.005Z,4.46
2022-12-27T01:18:15.889Z,4.37
2022-12-27T01:25:52.322Z,4.26
2022-12-27T01:33:26.193Z,4.21
2022-12-27T01:41:21.500Z,4.13
2022-12-27T01:48:55.657Z,4.05
2022-12-27T01:56:32.979Z,4.02
2022-12-27T02:04:09.995Z,4.00
2022-12-27T02:11:56.447Z,3.97
2022-12-27T02:19:40.367Z,3.93
2022-12-27T02:27:30.751Z,3.92
2022-12-27T02:35:15.840Z,3.92
2022-12-27T02:43:09.973Z,3.85
2022-12-27T02:51:15.063Z,3.69
2022-12-27T02:59:04.389Z,3.58
2022-12-27T03:06:53.876Z,3.59
2022-12-27T03:14:51.006Z,3.58
2022-12-27T03:22:47.644Z,3.54
2022-12-27T03:30:39.835Z,3.51
2022-12-27T03:38:15.981Z,3.50
2022-12-27T03:46:14.345Z,3.51
2022-12-27T03:53:53.322Z,3.47
2022-12-27T04:01:27.284Z,3.50
2022-12-27T04:09:20.371Z,3.55
2022-12-27T04:17:11.588Z,3.51
2022-12-27T04:25:04.636Z,3.54
2022-12-27T04:32:55.975Z,3.54
2022-12-27T04:40:48.697Z,3.54
2022-12-27T04:48:39.818Z,3.56
2022-12-27T04:56:15.190Z,3.59
2022-12-27T05:03:51.940Z,3.60
2022-12-27T05:11:45.297Z,3.57
2022-12-27T05:19:19.467Z,3.55
2022-12-27T05:26:57.011Z,3.54
2022-12-27T05:34:31.866Z,3.51
2022-12-27T05:42:07.927Z,3.51
2022-12-27T05:49:42.046Z,3.52
2022-12-27T05:57:17.562Z,3.56
2022-12-27T06:04:51.645Z,3.56
2022-12-27T06:12:26.846Z,3.57
2022-12-27T06:20:00.704Z,3.51
2022-12-27T06:27:36.325Z,3.50
2022-12-27T06:35:11.892Z,3.42
2022-12-27T06:42:47.053Z,3.42
2022-12-27T06:50:21.305Z,3.42
2022-12-27T06:57:56.724Z,3.41
2022-12-27T07:05:30.894Z,3.40
2022-12-27T07:13:06.194Z,3.39
2022-12-27T07:20:39.988Z,3.39
2022-12-27T07:28:15.456Z,3.45
2022-12-27T07:35:49.500Z,3.48
2022-12-27T07:43:24.892Z,3.48
2022-12-27T07:50:59.001Z,3.57
2022-12-27T07:58:37.255Z,3.66
2022-12-27T08:06:22.551Z,3.69
2022-12-27T08:13:58.308Z,3.74
2022-12-27T08:21:32.300Z,3.83
2022-12-27T08:29:07.609Z,3.89
2022-12-27T08:36:57.209Z,3.98
2022-12-27T08:44:32.551Z,4.08
2022-12-27T08:52:06.822Z,4.18
2022-12-27T08:59:42.298Z,4.26
2022-12-27T09:07:16.460Z,4.32
2022-12-27T09:14:51.649Z,4.55
2022-12-27T09:22:25.534Z,4.57
2022-12-27T09:30:00.744Z,4.81
2022-12-27T09:37:35.784Z,4.92
2022-12-27T09:45:15.463Z,4.86
2022-12-27T09:52:58.075Z,4.94
2022-12-27T10:00:35.159Z,5.00
2022-12-27T10:08:26.059Z,5.17
2022-12-27T10:16:17.190Z,5.27
2022-12-27T10:23:57.164Z,5.49
2022-12-27T10:31:33.467Z,5.57
2022-12-27T10:39:16.960Z,5.64
2022-12-27T10:46:53.964Z,5.63
2022-12-27T10:54:29.911Z,5.62
2022-12-27T11:02:19.572Z,5.64
2022-12-27T11:10:07.381Z,5.68
2022-12-27T11:17:45.911Z,5.67
2022-12-27T11:25:20.753Z,5.70
2022-12-27T11:32:56.748Z,5.73
2022-12-27T11:40:35.080Z,5.78
2022-12-27T11:48:22.300Z,5.85
2022-12-27T11:56:14.279Z,5.98
2022-12-27T12:04:20.434Z,6.10
2022-12-27T12:12:12.826Z,6.02
2022-12-27T12:20:23.882Z,6.09
2022-12-27T12:28:47.191Z,6.18
2022-12-27T12:36:33.763Z,6.17
2022-12-27T12:44:48.528Z,6.16
2022-12-27T12:52:53.904Z,6.08
2022-12-27T13:00:44.628Z,5.99
2022-12-27T13:08:26.813Z,6.00
2022-12-27T13:16:17.792Z,5.98
2022-12-27T13:24:02.144Z,5.97
2022-12-27T13:31:45.660Z,5.93
2022-12-27T13:39:37.100Z,5.89
2022-12-27T13:47:35.249Z,5.86
2022-12-27T13:55:38.047Z,5.85
2022-12-27T14:03:44.351Z,5.86
2022-12-27T14:11:31.814Z,5.75
2022-12-27T14:19:24.436Z,5.69
2022-12-27T14:27:55.958Z,5.65
2022-12-27T14:36:10.074Z,5.61
2022-12-27T14:44:25.200Z,5.56
2022-12-27T14:52:24.936Z,5.56
2022-12-27T15:00:04.698Z,5.52
2022-12-27T15:07:58.962Z,5.42
2022-12-27T15:15:55.298Z,5.32
2022-12-27T15:23:37.299Z,5.23
2022-12-27T15:31:22.455Z,5.13
2022-12-27T15:38:56.825Z,5.06
2022-12-27T15:47:07.871Z,4.94
2022-12-27T15:54:59.054Z,4.84
2022-12-27T16:02:39.121Z,4.72
2022-12-27T16:10:50.673Z,4.63
2022-12-27T16:18:48.047Z,4.57
2022-12-27T16:26:25.464Z,4.49
2022-12-27T16:34:11.794Z,4.42
2022-12-27T16:42:03.258Z,4.34
2022-12-27T16:50:01.931Z,4.32
2022-12-27T16:57:42.161Z,4.26
2022-12-27T17:05:41.926Z,4.23
2022-12-27T17:13:28.384Z,4.17
2022-12-27T17:21:08.260Z,4.14
2022-12-27T17:28:52.516Z,4.07
2022-12-27T17:36:44.458Z,3.97
2022-12-27T17:44:40.781Z,3.92
2022-12-27T17:52:39.480Z,3.80
2022-12-27T18:00:26.037Z,3.74
2022-12-27T18:08:07.264Z,3.67
2022-12-27T18:15:46.190Z,3.65
2022-12-27T18:23:21.660Z,3.61
2022-12-27T18:31:01.478Z,3.59
2022-12-27T18:38:41.224Z,3.55
2022-12-27T18:46:18.308Z,3.48
2022-12-27T18:53:53.730Z,3.49
2022-12-27T19:01:31.944Z,3.42
2022-12-27T19:09:07.231Z,3.38
2022-12-27T19:16:41.171Z,3.34
2022-12-27T19:24:32.479Z,3.24
2022-12-27T19:32:10.075Z,3.14
2022-12-27T19:39:48.194Z,2.98
2022-12-27T19:47:22.410Z,2.97
2022-12-27T19:55:02.700Z,2.97
2022-12-27T20:02:36.651Z,2.96
2022-12-27T20:10:17.881Z,2.98
2022-12-27T20:17:52.341Z,3.02
2022-12-27T20:25:27.466Z,3.03
2022-12-27T20:33:02.809Z,2.95
2022-12-27T20:40:39.076Z,2.84
2022-12-27T20:48:13.012Z,2.82
2022-12-27T20:55:59.231Z,2.82
2022-12-27T21:03:33.252Z,2.88
2022-12-27T21:11:10.296Z,2.89
2022-12-27T21:18:45.719Z,2.95
2022-12-27T21:26:23.623Z,2.97
2022-12-27T21:33:57.903Z,2.90
2022-12-27T21:41:35.171Z,2.93
2022-12-27T21:49:10.699Z,2.96
2022-12-27T21:56:45.932Z,3.00
2022-12-27T22:04:20.941Z,3.04
2022-12-27T22:11:56.266Z,3.12
2022-12-27T22:19:30.209Z,3.17
2022-12-27T22:27:05.464Z,3.18
2022-12-27T22:34:39.989Z,3.18
2022-12-27T22:42:15.523Z,3.21
2022-12-27T22:49:49.447Z,3.20
2022-12-27T22:57:24.779Z,3.21
2022-12-27T23:04:58.634Z,3.27
2022-12-27T23:12:34.011Z,3.34
2022-12-27T23:20:09.560Z,3.43
2022-12-27T23:27:44.880Z,3.54
2022-12-27T23:35:19.214Z,3.63
2022-12-27T23:42:54.640Z,3.69
2022-12-27T23:50:28.580Z,3.85
2022-12-27T23:58:03.920Z,3.95
